sensor_id;sensor_type;location;lat;lon;timestamp;P1;durP1;ratioP1;P2;durP2;ratioP2
6197;SDS011;3132;42.622;23.328;2023-12-20T00:01:32;10.20;;;9.80;;
6197;SDS011;3132;42.622;23.328;2023-12-20T00:03:57;10.27;;;9.87;;
6197;SDS011;3132;42.622;23.328;2023-12-20T00:06:22;9.93;;;9.53;;
6197;SDS011;3132;42.622;23.328;2023-12-20T00:08:48;9.60;;;9.20;;
6197;SDS011;3132;42.622;23.328;2023-12-20T00:11:13;8.80;;;8.50;;
6197;SDS011;3132;42.622;23.328;2023-12-20T00:13:38;10.07;;;9.60;;
6197;SDS011;3132;42.622;23.328;2023-12-20T00:16:04;10.27;;;9.67;;
6197;SDS011;3132;42.622;23.328;2023-12-20T00:18:29;9.97;;;9.50;;
6197;SDS011;3132;42.622;23.328;2023-12-20T00:20:55;10.60;;;10.07;;
6197;SDS011;3132;42.622;23.328;2023-12-20T00:23:20;10.33;;;9.93;;
6197;SDS011;3132;42.622;23.328;2023-12-20T00:25:45;12.07;;;11.47;;
6197;SDS011;3132;42.622;23.328;2023-12-20T00:28:11;11.20;;;10.60;;
6197;SDS011;3132;42.622;23.328;2023-12-20T00:30:36;10.33;;;9.47;;
6197;SDS011;3132;42.622;23.328;2023-12-20T00:33:02;9.17;;;8.73;;
6197;SDS011;3132;42.622;23.328;2023-12-20T00:35:27;10.93;;;10.53;;
6197;SDS011;3132;42.622;23.328;2023-12-20T00:37:52;11.67;;;11.17;;
6197;SDS011;3132;42.622;23.328;2023-12-20T00:40:18;10.47;;;9.97;;
6197;SDS011;3132;42.622;23.328;2023-12-20T00:42:43;12.07;;;11.10;;
6197;SDS011;3132;42.622;23.328;2023-12-20T00:45:09;12.13;;;11.40;;
6197;SDS011;3132;42.622;23.328;2023-12-20T00:47:34;12.13;;;11.07;;
6197;SDS011;3132;42.622;23.328;2023-12-20T00:49:59;11.87;;;11.07;;
6197;SDS011;3132;42.622;23.328;2023-12-20T00:52:25;12.47;;;11.67;;
6197;SDS011;3132;42.622;23.328;2023-12-20T00:54:50;13.10;;;12.23;;
6197;SDS011;3132;42.622;23.328;2023-12-20T00:57:16;11.03;;;10.43;;
6197;SDS011;3132;42.622;23.328;2023-12-20T00:59:41;11.30;;;10.60;;
6197;SDS011;3132;42.622;23.328;2023-12-20T01:02:07;12.50;;;11.77;;
6197;SDS011;3132;42.622;23.328;2023-12-20T01:04:33;11.87;;;11.23;;
6197;SDS011;3132;42.622;23.328;2023-12-20T01:06:59;12.17;;;11.37;;
6197;SDS011;3132;42.622;23.328;2023-12-20T01:09:24;10.30;;;9.57;;
6197;SDS011;3132;42.622;23.328;2023-12-20T01:11:51;12.67;;;11.73;;
6197;SDS011;3132;42.622;23.328;2023-12-20T01:14:17;10.83;;;10.30;;
6197;SDS011;3132;42.622;23.328;2023-12-20T01:16:43;9.80;;;9.40;;
6197;SDS011;3132;42.622;23.328;2023-12-20T01:19:08;10.50;;;10.00;;
6197;SDS011;3132;42.622;23.328;2023-12-20T01:21:33;11.23;;;10.73;;
6197;SDS011;3132;42.622;23.328;2023-12-20T01:23:59;12.50;;;11.70;;
6197;SDS011;3132;42.622;23.328;2023-12-20T01:26:24;11.67;;;10.97;;
6197;SDS011;3132;42.622;23.328;2023-12-20T01:28:49;11.20;;;10.57;;
6197;SDS011;3132;42.622;23.328;2023-12-20T01:31:15;13.17;;;12.23;;
6197;SDS011;3132;42.622;23.328;2023-12-20T01:33:40;11.77;;;11.03;;
6197;SDS011;3132;42.622;23.328;2023-12-20T01:36:05;11.53;;;10.67;;
6197;SDS011;3132;42.622;23.328;2023-12-20T01:38:31;12.37;;;11.53;;
6197;SDS011;3132;42.622;23.328;2023-12-20T01:40:57;11.50;;;10.80;;
6197;SDS011;3132;42.622;23.328;2023-12-20T01:43:22;10.77;;;10.27;;
6197;SDS011;3132;42.622;23.328;2023-12-20T01:45:48;12.20;;;11.60;;
6197;SDS011;3132;42.622;23.328;2023-12-20T01:48:13;11.03;;;10.43;;
6197;SDS011;3132;42.622;23.328;2023-12-20T01:50:41;11.77;;;11.07;;
6197;SDS011;3132;42.622;23.328;2023-12-20T01:53:08;11.77;;;10.97;;
6197;SDS011;3132;42.622;23.328;2023-12-20T01:55:35;11.87;;;11.27;;
6197;SDS011;3132;42.622;23.328;2023-12-20T01:58:04;17.40;;;15.57;;
6197;SDS011;3132;42.622;23.328;2023-12-20T02:00:30;29.23;;;19.67;;
6197;SDS011;3132;42.622;23.328;2023-12-20T02:02:56;29.30;;;21.00;;
6197;SDS011;3132;42.622;23.328;2023-12-20T02:05:25;27.67;;;20.57;;
6197;SDS011;3132;42.622;23.328;2023-12-20T02:07:52;39.43;;;25.53;;
6197;SDS011;3132;42.622;23.328;2023-12-20T02:10:18;34.50;;;24.47;;
6197;SDS011;3132;42.622;23.328;2023-12-20T02:12:43;32.03;;;22.30;;
6197;SDS011;3132;42.622;23.328;2023-12-20T02:15:09;29.77;;;22.77;;
6197;SDS011;3132;42.622;23.328;2023-12-20T02:17:36;23.83;;;21.20;;
6197;SDS011;3132;42.622;23.328;2023-12-20T02:20:02;16.70;;;15.17;;
6197;SDS011;3132;42.622;23.328;2023-12-20T02:22:28;13.13;;;12.13;;
6197;SDS011;3132;42.622;23.328;2023-12-20T02:24:53;13.50;;;12.30;;
6197;SDS011;3132;42.622;23.328;2023-12-20T02:27:19;14.10;;;13.00;;
6197;SDS011;3132;42.622;23.328;2023-12-20T02:29:44;13.17;;;12.27;;
6197;SDS011;3132;42.622;23.328;2023-12-20T02:32:12;13.03;;;11.93;;
6197;SDS011;3132;42.622;23.328;2023-12-20T02:34:37;12.77;;;11.77;;
6197;SDS011;3132;42.622;23.328;2023-12-20T02:37:03;13.23;;;12.27;;
6197;SDS011;3132;42.622;23.328;2023-12-20T02:39:28;13.43;;;12.30;;
6197;SDS011;3132;42.622;23.328;2023-12-20T02:41:53;12.47;;;11.67;;
6197;SDS011;3132;42.622;23.328;2023-12-20T02:44:19;13.30;;;12.37;;
6197;SDS011;3132;42.622;23.328;2023-12-20T02:46:44;14.10;;;12.97;;
6197;SDS011;3132;42.622;23.328;2023-12-20T02:49:09;14.23;;;13.03;;
6197;SDS011;3132;42.622;23.328;2023-12-20T02:51:35;14.70;;;13.50;;
6197;SDS011;3132;42.622;23.328;2023-12-20T02:54:03;15.43;;;14.20;;
6197;SDS011;3132;42.622;23.328;2023-12-20T02:56:29;15.67;;;14.40;;
6197;SDS011;3132;42.622;23.328;2023-12-20T02:58:54;17.67;;;16.07;;
6197;SDS011;3132;42.622;23.328;2023-12-20T03:01:19;17.93;;;16.33;;
6197;SDS011;3132;42.622;23.328;2023-12-20T03:03:45;18.53;;;16.73;;
6197;SDS011;3132;42.622;23.328;2023-12-20T03:06:10;15.57;;;14.07;;
6197;SDS011;3132;42.622;23.328;2023-12-20T03:08:35;14.33;;;13.20;;
6197;SDS011;3132;42.622;23.328;2023-12-20T03:11:01;14.40;;;13.23;;
6197;SDS011;3132;42.622;23.328;2023-12-20T03:13:26;15.67;;;14.17;;
6197;SDS011;3132;42.622;23.328;2023-12-20T03:15:51;15.37;;;14.07;;
6197;SDS011;3132;42.622;23.328;2023-12-20T03:18:17;14.13;;;12.93;;
6197;SDS011;3132;42.622;23.328;2023-12-20T03:20:43;18.17;;;16.43;;
6197;SDS011;3132;42.622;23.328;2023-12-20T03:23:08;15.97;;;14.67;;
6197;SDS011;3132;42.622;23.328;2023-12-20T03:25:34;14.57;;;13.30;;
6197;SDS011;3132;42.622;23.328;2023-12-20T03:27:59;15.87;;;14.53;;
6197;SDS011;3132;42.622;23.328;2023-12-20T03:30:25;15.33;;;14.03;;
6197;SDS011;3132;42.622;23.328;2023-12-20T03:32:50;14.57;;;13.57;;
6197;SDS011;3132;42.622;23.328;2023-12-20T03:35:16;13.93;;;12.93;;
6197;SDS011;3132;42.622;23.328;2023-12-20T03:37:42;14.60;;;13.50;;
6197;SDS011;3132;42.622;23.328;2023-12-20T03:40:07;15.43;;;14.23;;
6197;SDS011;3132;42.622;23.328;2023-12-20T03:42:32;15.67;;;14.20;;
6197;SDS011;3132;42.622;23.328;2023-12-20T03:44:58;18.50;;;16.70;;
6197;SDS011;3132;42.622;23.328;2023-12-20T03:47:23;18.93;;;16.83;;
6197;SDS011;3132;42.622;23.328;2023-12-20T03:49:48;19.83;;;17.77;;
6197;SDS011;3132;42.622;23.328;2023-12-20T03:52:14;19.33;;;17.37;;
6197;SDS011;3132;42.622;23.328;2023-12-20T03:54:39;26.83;;;21.53;;
6197;SDS011;3132;42.622;23.328;2023-12-20T03:57:07;25.47;;;19.93;;
6197;SDS011;3132;42.622;23.328;2023-12-20T03:59:36;21.50;;;19.27;;
6197;SDS011;3132;42.622;23.328;2023-12-20T04:02:01;21.97;;;19.70;;
6197;SDS011;3132;42.622;23.328;2023-12-20T04:04:27;23.67;;;20.17;;
6197;SDS011;3132;42.622;23.328;2023-12-20T04:06:52;25.53;;;20.20;;
6197;SDS011;3132;42.622;23.328;2023-12-20T04:09:18;22.03;;;19.43;;
6197;SDS011;3132;42.622;23.328;2023-12-20T04:11:43;24.10;;;19.23;;
6197;SDS011;3132;42.622;23.328;2023-12-20T04:14:08;21.27;;;19.00;;
6197;SDS011;3132;42.622;23.328;2023-12-20T04:16:34;23.20;;;20.70;;
6197;SDS011;3132;42.622;23.328;2023-12-20T04:18:59;21.67;;;19.17;;
6197;SDS011;3132;42.622;23.328;2023-12-20T04:21:25;22.33;;;19.77;;
6197;SDS011;3132;42.622;23.328;2023-12-20T04:23:50;22.17;;;19.73;;
6197;SDS011;3132;42.622;23.328;2023-12-20T04:26:15;20.00;;;18.03;;
6197;SDS011;3132;42.622;23.328;2023-12-20T04:28:41;20.47;;;16.60;;
6197;SDS011;3132;42.622;23.328;2023-12-20T04:31:07;18.57;;;16.73;;
6197;SDS011;3132;42.622;23.328;2023-12-20T04:33:32;17.50;;;15.77;;
6197;SDS011;3132;42.622;23.328;2023-12-20T04:35:57;16.03;;;14.43;;
6197;SDS011;3132;42.622;23.328;2023-12-20T04:38:23;16.00;;;14.60;;
6197;SDS011;3132;42.622;23.328;2023-12-20T04:40:48;14.17;;;13.07;;
6197;SDS011;3132;42.622;23.328;2023-12-20T04:43:14;13.73;;;12.70;;
6197;SDS011;3132;42.622;23.328;2023-12-20T04:45:39;14.27;;;13.10;;
6197;SDS011;3132;42.622;23.328;2023-12-20T04:48:05;14.50;;;13.30;;
6197;SDS011;3132;42.622;23.328;2023-12-20T04:50:30;15.00;;;13.90;;
6197;SDS011;3132;42.622;23.328;2023-12-20T04:52:56;13.37;;;12.40;;
6197;SDS011;3132;42.622;23.328;2023-12-20T04:55:21;14.10;;;13.20;;
6197;SDS011;3132;42.622;23.328;2023-12-20T04:57:47;12.83;;;12.03;;
6197;SDS011;3132;42.622;23.328;2023-12-20T05:00:12;12.20;;;11.50;;
6197;SDS011;3132;42.622;23.328;2023-12-20T05:02:40;13.40;;;12.57;;
6197;SDS011;3132;42.622;23.328;2023-12-20T05:05:06;14.17;;;13.07;;
6197;SDS011;3132;42.622;23.328;2023-12-20T05:07:31;14.13;;;13.13;;
6197;SDS011;3132;42.622;23.328;2023-12-20T05:09:57;14.10;;;13.17;;
6197;SDS011;3132;42.622;23.328;2023-12-20T05:12:23;12.47;;;11.77;;
6197;SDS011;3132;42.622;23.328;2023-12-20T05:14:48;14.63;;;13.47;;
6197;SDS011;3132;42.622;23.328;2023-12-20T05:17:13;14.57;;;13.47;;
6197;SDS011;3132;42.622;23.328;2023-12-20T05:19:38;12.20;;;11.40;;
6197;SDS011;3132;42.622;23.328;2023-12-20T05:22:04;14.77;;;13.77;;
6197;SDS011;3132;42.622;23.328;2023-12-20T05:24:29;15.57;;;14.37;;
6197;SDS011;3132;42.622;23.328;2023-12-20T05:26:54;14.27;;;13.23;;
6197;SDS011;3132;42.622;23.328;2023-12-20T05:29:20;15.07;;;13.80;;
6197;SDS011;3132;42.622;23.328;2023-12-20T05:31:45;15.57;;;14.07;;
6197;SDS011;3132;42.622;23.328;2023-12-20T05:34:11;14.50;;;13.40;;
6197;SDS011;3132;42.622;23.328;2023-12-20T05:36:36;13.97;;;13.07;;
6197;SDS011;3132;42.622;23.328;2023-12-20T05:39:02;14.07;;;13.07;;
6197;SDS011;3132;42.622;23.328;2023-12-20T05:41:30;14.87;;;13.63;;
6197;SDS011;3132;42.622;23.328;2023-12-20T05:43:56;16.57;;;14.83;;
6197;SDS011;3132;42.622;23.328;2023-12-20T05:46:23;17.23;;;15.47;;
6197;SDS011;3132;42.622;23.328;2023-12-20T05:48:48;17.17;;;15.93;;
6197;SDS011;3132;42.622;23.328;2023-12-20T05:51:14;19.87;;;16.93;;
6197;SDS011;3132;42.622;23.328;2023-12-20T05:53:39;19.27;;;16.63;;
6197;SDS011;3132;42.622;23.328;2023-12-20T05:56:05;28.87;;;20.93;;
6197;SDS011;3132;42.622;23.328;2023-12-20T05:58:31;25.30;;;21.70;;
6197;SDS011;3132;42.622;23.328;2023-12-20T06:00:57;31.43;;;24.73;;
6197;SDS011;3132;42.622;23.328;2023-12-20T06:03:22;23.33;;;20.83;;
6197;SDS011;3132;42.622;23.328;2023-12-20T06:05:48;30.97;;;21.00;;
6197;SDS011;3132;42.622;23.328;2023-12-20T06:08:13;27.27;;;23.00;;
6197;SDS011;3132;42.622;23.328;2023-12-20T06:10:39;32.67;;;22.87;;
6197;SDS011;3132;42.622;23.328;2023-12-20T06:13:05;29.97;;;23.43;;
6197;SDS011;3132;42.622;23.328;2023-12-20T06:15:31;24.73;;;19.27;;
6197;SDS011;3132;42.622;23.328;2023-12-20T06:17:57;20.00;;;16.63;;
6197;SDS011;3132;42.622;23.328;2023-12-20T06:20:22;19.20;;;17.30;;
6197;SDS011;3132;42.622;23.328;2023-12-20T06:22:48;17.87;;;16.07;;
6197;SDS011;3132;42.622;23.328;2023-12-20T06:25:13;23.10;;;17.23;;
6197;SDS011;3132;42.622;23.328;2023-12-20T06:27:39;18.33;;;16.40;;
6197;SDS011;3132;42.622;23.328;2023-12-20T06:30:06;18.73;;;16.83;;
6197;SDS011;3132;42.622;23.328;2023-12-20T06:32:32;22.93;;;17.27;;
6197;SDS011;3132;42.622;23.328;2023-12-20T06:34:59;20.30;;;18.13;;
6197;SDS011;3132;42.622;23.328;2023-12-20T06:37:24;22.23;;;17.33;;
6197;SDS011;3132;42.622;23.328;2023-12-20T06:39:50;29.67;;;19.30;;
6197;SDS011;3132;42.622;23.328;2023-12-20T06:42:15;27.90;;;18.60;;
6197;SDS011;3132;42.622;23.328;2023-12-20T06:44:40;26.07;;;17.57;;
6197;SDS011;3132;42.622;23.328;2023-12-20T06:47:06;27.30;;;19.17;;
6197;SDS011;3132;42.622;23.328;2023-12-20T06:49:33;24.97;;;18.60;;
6197;SDS011;3132;42.622;23.328;2023-12-20T06:51:58;27.50;;;19.40;;
6197;SDS011;3132;42.622;23.328;2023-12-20T06:54:23;26.73;;;18.57;;
6197;SDS011;3132;42.622;23.328;2023-12-20T06:56:49;22.47;;;18.57;;
6197;SDS011;3132;42.622;23.328;2023-12-20T06:59:14;24.43;;;16.70;;
6197;SDS011;3132;42.622;23.328;2023-12-20T07:01:40;17.67;;;15.53;;
6197;SDS011;3132;42.622;23.328;2023-12-20T07:04:06;24.53;;;16.63;;
6197;SDS011;3132;42.622;23.328;2023-12-20T07:06:31;22.80;;;17.10;;
6197;SDS011;3132;42.622;23.328;2023-12-20T07:08:56;21.73;;;17.43;;
6197;SDS011;3132;42.622;23.328;2023-12-20T07:11:22;18.17;;;16.37;;
6197;SDS011;3132;42.622;23.328;2023-12-20T07:13:48;29.43;;;24.13;;
6197;SDS011;3132;42.622;23.328;2023-12-20T07:16:14;37.67;;;24.13;;
6197;SDS011;3132;42.622;23.328;2023-12-20T07:18:40;36.33;;;26.70;;
6197;SDS011;3132;42.622;23.328;2023-12-20T07:21:05;28.00;;;24.00;;
6197;SDS011;3132;42.622;23.328;2023-12-20T07:23:32;33.67;;;27.00;;
6197;SDS011;3132;42.622;23.328;2023-12-20T07:25:58;42.27;;;28.40;;
6197;SDS011;3132;42.622;23.328;2023-12-20T07:28:23;33.23;;;26.00;;
6197;SDS011;3132;42.622;23.328;2023-12-20T07:30:49;42.77;;;29.73;;
6197;SDS011;3132;42.622;23.328;2023-12-20T07:33:15;40.00;;;28.17;;
6197;SDS011;3132;42.622;23.328;2023-12-20T07:35:40;47.83;;;28.63;;
6197;SDS011;3132;42.622;23.328;2023-12-20T07:38:06;44.37;;;27.37;;
6197;SDS011;3132;42.622;23.328;2023-12-20T07:40:31;40.03;;;28.80;;
6197;SDS011;3132;42.622;23.328;2023-12-20T07:42:57;39.13;;;28.57;;
6197;SDS011;3132;42.622;23.328;2023-12-20T07:45:23;35.93;;;28.07;;
6197;SDS011;3132;42.622;23.328;2023-12-20T07:47:48;39.60;;;28.97;;
6197;SDS011;3132;42.622;23.328;2023-12-20T07:50:15;42.57;;;27.43;;
6197;SDS011;3132;42.622;23.328;2023-12-20T07:52:40;42.50;;;28.77;;
6197;SDS011;3132;42.622;23.328;2023-12-20T07:55:06;41.50;;;27.93;;
6197;SDS011;3132;42.622;23.328;2023-12-20T07:57:31;33.23;;;25.60;;
6197;SDS011;3132;42.622;23.328;2023-12-20T07:59:57;42.93;;;27.63;;
6197;SDS011;3132;42.622;23.328;2023-12-20T08:02:22;48.83;;;31.37;;
6197;SDS011;3132;42.622;23.328;2023-12-20T08:04:48;45.90;;;33.13;;
6197;SDS011;3132;42.622;23.328;2023-12-20T08:07:13;44.10;;;31.27;;
6197;SDS011;3132;42.622;23.328;2023-12-20T08:09:38;53.47;;;36.20;;
6197;SDS011;3132;42.622;23.328;2023-12-20T08:12:04;49.53;;;38.73;;
6197;SDS011;3132;42.622;23.328;2023-12-20T08:14:29;54.63;;;37.83;;
6197;SDS011;3132;42.622;23.328;2023-12-20T08:16:54;53.07;;;38.63;;
6197;SDS011;3132;42.622;23.328;2023-12-20T08:19:20;60.50;;;39.97;;
6197;SDS011;3132;42.622;23.328;2023-12-20T08:21:45;61.07;;;39.77;;
6197;SDS011;3132;42.622;23.328;2023-12-20T08:24:10;63.70;;;39.93;;
6197;SDS011;3132;42.622;23.328;2023-12-20T08:26:36;61.10;;;40.07;;
6197;SDS011;3132;42.622;23.328;2023-12-20T08:29:01;55.20;;;38.50;;
6197;SDS011;3132;42.622;23.328;2023-12-20T08:31:26;57.80;;;40.33;;
6197;SDS011;3132;42.622;23.328;2023-12-20T08:33:52;54.37;;;40.30;;
6197;SDS011;3132;42.622;23.328;2023-12-20T08:36:18;63.07;;;40.93;;
6197;SDS011;3132;42.622;23.328;2023-12-20T08:38:46;68.30;;;45.30;;
6197;SDS011;3132;42.622;23.328;2023-12-20T08:41:12;62.17;;;42.67;;
6197;SDS011;3132;42.622;23.328;2023-12-20T08:43:37;74.43;;;48.13;;
6197;SDS011;3132;42.622;23.328;2023-12-20T08:46:05;86.13;;;50.43;;
6197;SDS011;3132;42.622;23.328;2023-12-20T08:48:30;89.60;;;52.97;;
6197;SDS011;3132;42.622;23.328;2023-12-20T08:50:56;80.70;;;52.43;;
6197;SDS011;3132;42.622;23.328;2023-12-20T08:53:21;83.90;;;51.43;;
6197;SDS011;3132;42.622;23.328;2023-12-20T08:55:46;87.33;;;52.50;;
6197;SDS011;3132;42.622;23.328;2023-12-20T08:58:12;80.40;;;50.50;;
6197;SDS011;3132;42.622;23.328;2023-12-20T09:00:37;75.50;;;53.13;;
6197;SDS011;3132;42.622;23.328;2023-12-20T09:03:04;86.67;;;54.00;;
6197;SDS011;3132;42.622;23.328;2023-12-20T09:05:29;90.63;;;57.07;;
6197;SDS011;3132;42.622;23.328;2023-12-20T09:07:55;86.17;;;55.27;;
6197;SDS011;3132;42.622;23.328;2023-12-20T09:10:20;88.40;;;55.13;;
6197;SDS011;3132;42.622;23.328;2023-12-20T09:12:47;86.13;;;57.23;;
6197;SDS011;3132;42.622;23.328;2023-12-20T09:15:13;94.53;;;58.43;;
6197;SDS011;3132;42.622;23.328;2023-12-20T09:17:39;84.67;;;55.13;;
6197;SDS011;3132;42.622;23.328;2023-12-20T09:20:05;91.10;;;59.17;;
6197;SDS011;3132;42.622;23.328;2023-12-20T09:22:33;96.57;;;61.07;;
6197;SDS011;3132;42.622;23.328;2023-12-20T09:24:58;90.83;;;55.00;;
6197;SDS011;3132;42.622;23.328;2023-12-20T09:27:23;86.73;;;56.10;;
6197;SDS011;3132;42.622;23.328;2023-12-20T09:29:49;94.57;;;56.53;;
6197;SDS011;3132;42.622;23.328;2023-12-20T09:32:14;91.40;;;57.43;;
6197;SDS011;3132;42.622;23.328;2023-12-20T09:34:40;85.63;;;55.83;;
6197;SDS011;3132;42.622;23.328;2023-12-20T09:37:06;87.33;;;56.17;;
6197;SDS011;3132;42.622;23.328;2023-12-20T09:39:32;88.53;;;58.17;;
6197;SDS011;3132;42.622;23.328;2023-12-20T09:42:04;88.77;;;56.83;;
6197;SDS011;3132;42.622;23.328;2023-12-20T09:44:31;86.20;;;57.43;;
6197;SDS011;3132;42.622;23.328;2023-12-20T09:46:58;86.47;;;57.47;;
6197;SDS011;3132;42.622;23.328;2023-12-20T09:49:23;97.33;;;53.50;;
6197;SDS011;3132;42.622;23.328;2023-12-20T09:51:53;91.37;;;59.97;;
6197;SDS011;3132;42.622;23.328;2023-12-20T09:54:19;99.50;;;57.60;;
6197;SDS011;3132;42.622;23.328;2023-12-20T09:56:46;97.13;;;56.17;;
6197;SDS011;3132;42.622;23.328;2023-12-20T09:59:11;90.73;;;58.57;;
6197;SDS011;3132;42.622;23.328;2023-12-20T10:01:38;90.67;;;56.93;;
6197;SDS011;3132;42.622;23.328;2023-12-20T10:04:08;83.43;;;54.73;;
6197;SDS011;3132;42.622;23.328;2023-12-20T10:06:43;86.03;;;53.57;;
6197;SDS011;3132;42.622;23.328;2023-12-20T10:09:10;78.70;;;48.60;;
6197;SDS011;3132;42.622;23.328;2023-12-20T10:11:36;76.33;;;47.03;;
6197;SDS011;3132;42.622;23.328;2023-12-20T10:14:03;80.20;;;51.53;;
6197;SDS011;3132;42.622;23.328;2023-12-20T10:16:29;72.33;;;47.33;;
6197;SDS011;3132;42.622;23.328;2023-12-20T10:18:56;77.03;;;50.20;;
6197;SDS011;3132;42.622;23.328;2023-12-20T10:21:22;76.73;;;51.57;;
6197;SDS011;3132;42.622;23.328;2023-12-20T10:23:48;84.93;;;53.43;;
6197;SDS011;3132;42.622;23.328;2023-12-20T10:26:20;84.20;;;53.47;;
6197;SDS011;3132;42.622;23.328;2023-12-20T10:28:46;87.60;;;52.33;;
6197;SDS011;3132;42.622;23.328;2023-12-20T10:31:31;82.00;;;51.53;;
6197;SDS011;3132;42.622;23.328;2023-12-20T10:34:00;90.27;;;52.90;;
6197;SDS011;3132;42.622;23.328;2023-12-20T10:36:28;85.97;;;53.10;;
6197;SDS011;3132;42.622;23.328;2023-12-20T10:38:55;83.33;;;53.77;;
6197;SDS011;3132;42.622;23.328;2023-12-20T10:41:28;115.10;;;61.83;;
6197;SDS011;3132;42.622;23.328;2023-12-20T10:44:02;91.23;;;56.83;;
6197;SDS011;3132;42.622;23.328;2023-12-20T10:46:30;89.17;;;55.87;;
6197;SDS011;3132;42.622;23.328;2023-12-20T10:48:57;85.83;;;51.40;;
6197;SDS011;3132;42.622;23.328;2023-12-20T10:51:23;96.23;;;53.40;;
6197;SDS011;3132;42.622;23.328;2023-12-20T10:53:51;87.13;;;50.97;;
6197;SDS011;3132;42.622;23.328;2023-12-20T10:56:18;92.33;;;53.13;;
6197;SDS011;3132;42.622;23.328;2023-12-20T10:58:45;94.47;;;55.17;;
6197;SDS011;3132;42.622;23.328;2023-12-20T11:01:15;85.73;;;53.17;;
6197;SDS011;3132;42.622;23.328;2023-12-20T11:03:43;88.83;;;53.97;;
6197;SDS011;3132;42.622;23.328;2023-12-20T11:08:50;88.97;;;51.53;;
6197;SDS011;3132;42.622;23.328;2023-12-20T11:11:56;97.23;;;55.53;;
6197;SDS011;3132;42.622;23.328;2023-12-20T11:14:39;98.57;;;54.33;;
6197;SDS011;3132;42.622;23.328;2023-12-20T11:17:11;89.33;;;52.50;;
6197;SDS011;3132;42.622;23.328;2023-12-20T11:22:22;94.10;;;51.23;;
6197;SDS011;3132;42.622;23.328;2023-12-20T11:24:50;82.87;;;50.77;;
6197;SDS011;3132;42.622;23.328;2023-12-20T11:27:18;88.17;;;52.87;;
6197;SDS011;3132;42.622;23.328;2023-12-20T11:30:03;83.20;;;50.93;;
6197;SDS011;3132;42.622;23.328;2023-12-20T11:32:34;95.07;;;52.70;;
6197;SDS011;3132;42.622;23.328;2023-12-20T11:35:01;74.70;;;49.13;;
6197;SDS011;3132;42.622;23.328;2023-12-20T11:37:42;79.73;;;50.80;;
6197;SDS011;3132;42.622;23.328;2023-12-20T11:40:08;92.27;;;50.43;;
6197;SDS011;3132;42.622;23.328;2023-12-20T11:42:43;81.67;;;51.20;;
6197;SDS011;3132;42.622;23.328;2023-12-20T11:45:10;87.97;;;51.43;;
6197;SDS011;3132;42.622;23.328;2023-12-20T11:47:40;83.37;;;52.33;;
6197;SDS011;3132;42.622;23.328;2023-12-20T11:50:16;86.50;;;48.10;;
6197;SDS011;3132;42.622;23.328;2023-12-20T11:52:42;84.17;;;49.03;;
6197;SDS011;3132;42.622;23.328;2023-12-20T11:55:07;92.77;;;51.43;;
6197;SDS011;3132;42.622;23.328;2023-12-20T11:57:33;81.23;;;47.70;;
6197;SDS011;3132;42.622;23.328;2023-12-20T11:59:59;81.40;;;48.83;;
6197;SDS011;3132;42.622;23.328;2023-12-20T12:02:24;89.17;;;48.57;;
6197;SDS011;3132;42.622;23.328;2023-12-20T12:04:50;81.73;;;48.17;;
6197;SDS011;3132;42.622;23.328;2023-12-20T12:07:16;92.87;;;50.63;;
6197;SDS011;3132;42.622;23.328;2023-12-20T12:09:42;77.80;;;47.00;;
6197;SDS011;3132;42.622;23.328;2023-12-20T12:12:08;84.60;;;47.73;;
6197;SDS011;3132;42.622;23.328;2023-12-20T12:14:33;76.80;;;46.80;;
6197;SDS011;3132;42.622;23.328;2023-12-20T12:17:00;82.20;;;46.37;;
6197;SDS011;3132;42.622;23.328;2023-12-20T12:19:26;81.00;;;47.87;;
6197;SDS011;3132;42.622;23.328;2023-12-20T12:22:03;85.70;;;47.90;;
6197;SDS011;3132;42.622;23.328;2023-12-20T12:24:34;84.47;;;49.80;;
6197;SDS011;3132;42.622;23.328;2023-12-20T12:26:59;85.77;;;48.80;;
6197;SDS011;3132;42.622;23.328;2023-12-20T12:29:25;94.27;;;49.77;;
6197;SDS011;3132;42.622;23.328;2023-12-20T12:31:50;83.83;;;46.80;;
6197;SDS011;3132;42.622;23.328;2023-12-20T12:34:16;80.70;;;47.03;;
6197;SDS011;3132;42.622;23.328;2023-12-20T12:36:42;76.50;;;46.03;;
6197;SDS011;3132;42.622;23.328;2023-12-20T12:39:08;89.07;;;48.43;;
6197;SDS011;3132;42.622;23.328;2023-12-20T12:41:33;81.50;;;48.17;;
6197;SDS011;3132;42.622;23.328;2023-12-20T12:43:59;79.67;;;46.00;;
6197;SDS011;3132;42.622;23.328;2023-12-20T12:46:24;79.20;;;46.10;;
6197;SDS011;3132;42.622;23.328;2023-12-20T12:48:49;91.00;;;50.10;;
6197;SDS011;3132;42.622;23.328;2023-12-20T12:51:15;86.50;;;47.10;;
6197;SDS011;3132;42.622;23.328;2023-12-20T12:53:41;87.43;;;47.30;;
6197;SDS011;3132;42.622;23.328;2023-12-20T12:56:06;82.67;;;48.17;;
6197;SDS011;3132;42.622;23.328;2023-12-20T12:58:32;86.43;;;48.97;;
6197;SDS011;3132;42.622;23.328;2023-12-20T13:00:58;84.00;;;49.00;;
6197;SDS011;3132;42.622;23.328;2023-12-20T13:03:24;94.10;;;51.50;;
6197;SDS011;3132;42.622;23.328;2023-12-20T13:05:49;89.00;;;51.57;;
6197;SDS011;3132;42.622;23.328;2023-12-20T13:08:15;96.43;;;48.97;;
6197;SDS011;3132;42.622;23.328;2023-12-20T13:10:41;92.00;;;47.97;;
6197;SDS011;3132;42.622;23.328;2023-12-20T13:13:06;88.57;;;50.37;;
6197;SDS011;3132;42.622;23.328;2023-12-20T13:15:32;90.30;;;48.77;;
6197;SDS011;3132;42.622;23.328;2023-12-20T13:17:57;89.40;;;48.80;;
6197;SDS011;3132;42.622;23.328;2023-12-20T13:20:23;80.40;;;47.10;;
6197;SDS011;3132;42.622;23.328;2023-12-20T13:22:48;80.67;;;48.77;;
6197;SDS011;3132;42.622;23.328;2023-12-20T13:25:13;85.90;;;49.10;;
6197;SDS011;3132;42.622;23.328;2023-12-20T13:27:39;93.73;;;51.27;;
6197;SDS011;3132;42.622;23.328;2023-12-20T13:30:05;82.63;;;49.30;;
6197;SDS011;3132;42.622;23.328;2023-12-20T13:32:30;68.67;;;41.50;;
6197;SDS011;3132;42.622;23.328;2023-12-20T13:34:56;85.80;;;51.00;;
6197;SDS011;3132;42.622;23.328;2023-12-20T13:37:21;91.57;;;52.53;;
6197;SDS011;3132;42.622;23.328;2023-12-20T13:39:47;87.63;;;49.93;;
6197;SDS011;3132;42.622;23.328;2023-12-20T13:42:12;82.83;;;51.00;;
6197;SDS011;3132;42.622;23.328;2023-12-20T13:44:38;83.63;;;46.10;;
6197;SDS011;3132;42.622;23.328;2023-12-20T13:47:03;81.13;;;47.33;;
6197;SDS011;3132;42.622;23.328;2023-12-20T13:49:29;69.80;;;45.67;;
6197;SDS011;3132;42.622;23.328;2023-12-20T13:51:54;68.10;;;39.23;;
6197;SDS011;3132;42.622;23.328;2023-12-20T13:54:20;58.30;;;37.40;;
6197;SDS011;3132;42.622;23.328;2023-12-20T13:56:47;39.27;;;27.50;;
6197;SDS011;3132;42.622;23.328;2023-12-20T13:59:12;22.77;;;20.47;;
6197;SDS011;3132;42.622;23.328;2023-12-20T14:01:38;27.23;;;19.33;;
6197;SDS011;3132;42.622;23.328;2023-12-20T14:04:04;18.90;;;15.67;;
6197;SDS011;3132;42.622;23.328;2023-12-20T14:06:29;15.90;;;14.37;;
6197;SDS011;3132;42.622;23.328;2023-12-20T14:08:55;18.77;;;16.70;;
6197;SDS011;3132;42.622;23.328;2023-12-20T14:11:20;22.10;;;18.67;;
6197;SDS011;3132;42.622;23.328;2023-12-20T14:13:46;18.27;;;16.63;;
6197;SDS011;3132;42.622;23.328;2023-12-20T14:16:11;17.53;;;14.80;;
6197;SDS011;3132;42.622;23.328;2023-12-20T14:18:37;15.47;;;14.03;;
6197;SDS011;3132;42.622;23.328;2023-12-20T14:21:03;14.73;;;13.27;;
6197;SDS011;3132;42.622;23.328;2023-12-20T14:23:28;14.93;;;13.63;;
6197;SDS011;3132;42.622;23.328;2023-12-20T14:25:53;15.40;;;13.90;;
6197;SDS011;3132;42.622;23.328;2023-12-20T14:28:20;20.30;;;15.57;;
6197;SDS011;3132;42.622;23.328;2023-12-20T14:30:46;15.83;;;14.43;;
6197;SDS011;3132;42.622;23.328;2023-12-20T14:33:11;15.23;;;13.87;;
6197;SDS011;3132;42.622;23.328;2023-12-20T14:35:37;13.67;;;12.73;;